sensor_id;sensor_type;location;lat;lon;timestamp;temperature;humidity
80577;DHT22;69937;52.420;10.538;2023-06-26T00:04:20;20.00;68.40
80577;DHT22;69937;52.420;10.538;2023-06-26T00:09:20;20.10;67.70
80577;DHT22;69937;52.420;10.538;2023-06-26T00:14:21;20.10;67.20
80577;DHT22;69937;52.420;10.538;2023-06-26T00:19:22;20.10;67.10
80577;DHT22;69937;52.420;10.538;2023-06-26T00:24:22;20.00;67.00
80577;DHT22;69937;52.420;10.538;2023-06-26T00:29:23;20.00;67.10
80577;DHT22;69937;52.420;10.538;2023-06-26T00:34:23;20.00;67.40
80577;DHT22;69937;52.420;10.538;2023-06-26T00:39:24;20.00;67.20
80577;DHT22;69937;52.420;10.538;2023-06-26T00:44:26;19.90;67.30
80577;DHT22;69937;52.420;10.538;2023-06-26T00:49:27;19.80;67.80
80577;DHT22;69937;52.420;10.538;2023-06-26T00:54:28;19.70;68.20
80577;DHT22;69937;52.420;10.538;2023-06-26T00:59:28;19.70;67.70
80577;DHT22;69937;52.420;10.538;2023-06-26T01:04:29;19.70;67.50
80577;DHT22;69937;52.420;10.538;2023-06-26T01:09:34;19.70;67.50
80577;DHT22;69937;52.420;10.538;2023-06-26T01:14:35;19.50;67.70
80577;DHT22;69937;52.420;10.538;2023-06-26T01:19:36;19.50;67.90
80577;DHT22;69937;52.420;10.538;2023-06-26T01:24:39;19.50;68.20
80577;DHT22;69937;52.420;10.538;2023-06-26T01:29:40;19.40;68.50
80577;DHT22;69937;52.420;10.538;2023-06-26T01:34:42;19.30;68.70
80577;DHT22;69937;52.420;10.538;2023-06-26T01:39:43;19.30;68.80
80577;DHT22;69937;52.420;10.538;2023-06-26T01:44:45;19.20;68.70
80577;DHT22;69937;52.420;10.538;2023-06-26T01:50:00;19.10;68.90
80577;DHT22;69937;52.420;10.538;2023-06-26T01:55:03;19.10;69.00
80577;DHT22;69937;52.420;10.538;2023-06-26T02:00:05;19.10;69.10
80577;DHT22;69937;52.420;10.538;2023-06-26T02:05:11;19.00;69.60
80577;DHT22;69937;52.420;10.538;2023-06-26T02:10:12;18.90;70.10
80577;DHT22;69937;52.420;10.538;2023-06-26T02:15:12;18.80;70.10
80577;DHT22;69937;52.420;10.538;2023-06-26T02:20:16;18.70;70.10
80577;DHT22;69937;52.420;10.538;2023-06-26T02:25:18;18.60;70.30
80577;DHT22;69937;52.420;10.538;2023-06-26T02:30:18;18.60;70.20
80577;DHT22;69937;52.420;10.538;2023-06-26T02:35:19;18.60;70.00
80577;DHT22;69937;52.420;10.538;2023-06-26T02:40:19;18.60;70.00
80577;DHT22;69937;52.420;10.538;2023-06-26T02:45:20;18.50;70.10
80577;DHT22;69937;52.420;10.538;2023-06-26T02:50:20;18.60;70.20
80577;DHT22;69937;52.420;10.538;2023-06-26T02:55:21;18.50;70.60
80577;DHT22;69937;52.420;10.538;2023-06-26T03:00:21;18.50;70.40
80577;DHT22;69937;52.420;10.538;2023-06-26T03:05:22;18.50;70.70
80577;DHT22;69937;52.420;10.538;2023-06-26T03:10:24;18.40;71.10
80577;DHT22;69937;52.420;10.538;2023-06-26T03:15:25;18.30;71.20
80577;DHT22;69937;52.420;10.538;2023-06-26T03:20:25;18.20;71.70
80577;DHT22;69937;52.420;10.538;2023-06-26T03:25:26;18.10;72.00
80577;DHT22;69937;52.420;10.538;2023-06-26T03:30:26;18.10;71.90
80577;DHT22;69937;52.420;10.538;2023-06-26T03:35:27;18.10;71.80
80577;DHT22;69937;52.420;10.538;2023-06-26T03:40:27;18.10;71.60
80577;DHT22;69937;52.420;10.538;2023-06-26T03:45:28;18.10;71.60
80577;DHT22;69937;52.420;10.538;2023-06-26T03:50:28;18.10;71.80
80577;DHT22;69937;52.420;10.538;2023-06-26T03:55:29;18.10;72.00
80577;DHT22;69937;52.420;10.538;2023-06-26T04:00:30;18.10;72.10
80577;DHT22;69937;52.420;10.538;2023-06-26T04:05:30;18.10;72.40
80577;DHT22;69937;52.420;10.538;2023-06-26T04:10:31;18.10;72.20
80577;DHT22;69937;52.420;10.538;2023-06-26T04:15:32;18.20;72.30
80577;DHT22;69937;52.420;10.538;2023-06-26T04:20:32;18.30;72.10
80577;DHT22;69937;52.420;10.538;2023-06-26T04:25:35;18.40;71.80
80577;DHT22;69937;52.420;10.538;2023-06-26T04:30:37;18.40;72.00
80577;DHT22;69937;52.420;10.538;2023-06-26T04:35:38;18.50;72.10
80577;DHT22;69937;52.420;10.538;2023-06-26T04:40:39;18.60;71.80
80577;DHT22;69937;52.420;10.538;2023-06-26T04:45:39;18.70;71.90
80577;DHT22;69937;52.420;10.538;2023-06-26T04:50:40;18.80;72.80
80577;DHT22;69937;52.420;10.538;2023-06-26T04:55:41;18.90;73.40
80577;DHT22;69937;52.420;10.538;2023-06-26T05:00:41;19.00;73.90
80577;DHT22;69937;52.420;10.538;2023-06-26T05:05:45;19.20;74.40
80577;DHT22;69937;52.420;10.538;2023-06-26T05:10:46;19.40;72.90
80577;DHT22;69937;52.420;10.538;2023-06-26T05:15:46;19.60;72.40
80577;DHT22;69937;52.420;10.538;2023-06-26T05:20:47;19.80;73.00
80577;DHT22;69937;52.420;10.538;2023-06-26T05:25:48;20.00;73.00
80577;DHT22;69937;52.420;10.538;2023-06-26T05:30:51;20.00;71.70
80577;DHT22;69937;52.420;10.538;2023-06-26T05:35:52;20.30;72.40
80577;DHT22;69937;52.420;10.538;2023-06-26T05:40:53;20.50;71.60
80577;DHT22;69937;52.420;10.538;2023-06-26T05:45:54;20.60;70.20
80577;DHT22;69937;52.420;10.538;2023-06-26T05:50:54;20.90;69.80
80577;DHT22;69937;52.420;10.538;2023-06-26T05:55:55;21.10;68.70
80577;DHT22;69937;52.420;10.538;2023-06-26T06:00:56;21.40;67.50
80577;DHT22;69937;52.420;10.538;2023-06-26T06:05:57;21.70;66.80
80577;DHT22;69937;52.420;10.538;2023-06-26T06:10:59;21.90;64.80
80577;DHT22;69937;52.420;10.538;2023-06-26T06:16:00;22.20;64.50
80577;DHT22;69937;52.420;10.538;2023-06-26T06:21:00;22.50;63.20
80577;DHT22;69937;52.420;10.538;2023-06-26T06:26:01;22.70;63.10
80577;DHT22;69937;52.420;10.538;2023-06-26T06:31:02;22.90;63.00
80577;DHT22;69937;52.420;10.538;2023-06-26T06:36:04;23.10;62.90
80577;DHT22;69937;52.420;10.538;2023-06-26T06:41:04;23.40;61.50
80577;DHT22;69937;52.420;10.538;2023-06-26T06:46:05;23.60;60.10
80577;DHT22;69937;52.420;10.538;2023-06-26T06:51:06;23.80;59.50
80577;DHT22;69937;52.420;10.538;2023-06-26T06:56:06;24.00;57.80
80577;DHT22;69937;52.420;10.538;2023-06-26T07:01:07;24.20;58.80
80577;DHT22;69937;52.420;10.538;2023-06-26T07:06:08;24.50;57.40
80577;DHT22;69937;52.420;10.538;2023-06-26T07:11:08;24.80;56.20
80577;DHT22;69937;52.420;10.538;2023-06-26T07:16:09;25.00;56.00
80577;DHT22;69937;52.420;10.538;2023-06-26T07:21:11;25.30;55.20
80577;DHT22;69937;52.420;10.538;2023-06-26T07:26:14;25.60;55.00
80577;DHT22;69937;52.420;10.538;2023-06-26T07:31:15;25.90;54.00
80577;DHT22;69937;52.420;10.538;2023-06-26T07:36:17;26.00;54.10
80577;DHT22;69937;52.420;10.538;2023-06-26T07:41:17;25.90;53.80
80577;DHT22;69937;52.420;10.538;2023-06-26T07:46:18;25.80;54.00
80577;DHT22;69937;52.420;10.538;2023-06-26T07:51:18;25.90;55.10
80577;DHT22;69937;52.420;10.538;2023-06-26T07:56:19;26.00;54.70
80577;DHT22;69937;52.420;10.538;2023-06-26T08:01:20;26.10;55.20
80577;DHT22;69937;52.420;10.538;2023-06-26T08:06:20;26.40;54.50
80577;DHT22;69937;52.420;10.538;2023-06-26T08:11:21;26.50;51.80
80577;DHT22;69937;52.420;10.538;2023-06-26T08:16:21;26.60;52.40
80577;DHT22;69937;52.420;10.538;2023-06-26T08:21:22;26.60;52.40
80577;DHT22;69937;52.420;10.538;2023-06-26T08:26:22;26.80;53.30
80577;DHT22;69937;52.420;10.538;2023-06-26T08:31:23;26.70;52.60
80577;DHT22;69937;52.420;10.538;2023-06-26T08:36:23;26.90;51.80
80577;DHT22;69937;52.420;10.538;2023-06-26T08:41:24;27.10;51.50
80577;DHT22;69937;52.420;10.538;2023-06-26T08:46:25;27.00;52.40
80577;DHT22;69937;52.420;10.538;2023-06-26T08:51:28;27.20;52.10
80577;DHT22;69937;52.420;10.538;2023-06-26T08:56:33;27.50;50.90
80577;DHT22;69937;52.420;10.538;2023-06-26T09:01:36;27.60;51.40
80577;DHT22;69937;52.420;10.538;2023-06-26T09:06:36;27.70;50.50
80577;DHT22;69937;52.420;10.538;2023-06-26T09:11:37;28.00;50.90
80577;DHT22;69937;52.420;10.538;2023-06-26T09:16:41;28.20;51.40
80577;DHT22;69937;52.420;10.538;2023-06-26T09:21:43;28.50;50.00
80577;DHT22;69937;52.420;10.538;2023-06-26T09:26:44;28.50;50.00
80577;DHT22;69937;52.420;10.538;2023-06-26T09:31:44;28.40;50.50
80577;DHT22;69937;52.420;10.538;2023-06-26T09:36:45;28.50;50.90
80577;DHT22;69937;52.420;10.538;2023-06-26T09:41:48;28.50;50.10
80577;DHT22;69937;52.420;10.538;2023-06-26T09:46:48;28.90;50.10
80577;DHT22;69937;52.420;10.538;2023-06-26T09:51:49;29.40;50.40
80577;DHT22;69937;52.420;10.538;2023-06-26T09:56:50;29.80;51.00
80577;DHT22;69937;52.420;10.538;2023-06-26T10:01:59;29.70;48.80
80577;DHT22;69937;52.420;10.538;2023-06-26T10:07:02;30.00;49.10
80577;DHT22;69937;52.420;10.538;2023-06-26T10:12:23;30.00;48.00
80577;DHT22;69937;52.420;10.538;2023-06-26T10:17:28;29.90;48.60
80577;DHT22;69937;52.420;10.538;2023-06-26T10:22:36;30.00;48.80
80577;DHT22;69937;52.420;10.538;2023-06-26T10:27:41;29.90;49.10
80577;DHT22;69937;52.420;10.538;2023-06-26T10:32:44;29.90;49.90
80577;DHT22;69937;52.420;10.538;2023-06-26T10:37:47;29.80;49.50
80577;DHT22;69937;52.420;10.538;2023-06-26T10:42:48;30.00;49.70
80577;DHT22;69937;52.420;10.538;2023-06-26T10:47:52;30.00;50.00
80577;DHT22;69937;52.420;10.538;2023-06-26T11:03:30;28.30;51.60
80577;DHT22;69937;52.420;10.538;2023-06-26T11:08:52;28.00;52.50
80577;DHT22;69937;52.420;10.538;2023-06-26T11:13:54;27.80;53.20
80577;DHT22;69937;52.420;10.538;2023-06-26T11:18:58;28.10;53.00
80577;DHT22;69937;52.420;10.538;2023-06-26T11:24:00;27.70;53.70
80577;DHT22;69937;52.420;10.538;2023-06-26T11:29:02;27.10;54.70
80577;DHT22;69937;52.420;10.538;2023-06-26T11:34:04;26.70;56.20
80577;DHT22;69937;52.420;10.538;2023-06-26T11:39:06;26.10;57.10
80577;DHT22;69937;52.420;10.538;2023-06-26T11:44:08;25.60;58.10
80577;DHT22;69937;52.420;10.538;2023-06-26T11:49:10;24.50;59.10
80577;DHT22;69937;52.420;10.538;2023-06-26T11:54:12;24.20;59.70
80577;DHT22;69937;52.420;10.538;2023-06-26T11:59:15;23.90;61.70
80577;DHT22;69937;52.420;10.538;2023-06-26T12:04:17;23.60;61.70
80577;DHT22;69937;52.420;10.538;2023-06-26T12:09:20;23.70;62.50
80577;DHT22;69937;52.420;10.538;2023-06-26T12:14:25;23.60;62.20
80577;DHT22;69937;52.420;10.538;2023-06-26T12:19:26;23.40;62.30
80577;DHT22;69937;52.420;10.538;2023-06-26T12:24:27;23.00;63.60
80577;DHT22;69937;52.420;10.538;2023-06-26T12:29:32;23.10;63.70
80577;DHT22;69937;52.420;10.538;2023-06-26T12:34:35;23.20;64.00
80577;DHT22;69937;52.420;10.538;2023-06-26T12:39:56;23.10;63.60
80577;DHT22;69937;52.420;10.538;2023-06-26T12:44:57;23.20;63.60
80577;DHT22;69937;52.420;10.538;2023-06-26T12:49:58;23.50;63.70
80577;DHT22;69937;52.420;10.538;2023-06-26T12:54:59;24.10;62.90
80577;DHT22;69937;52.420;10.538;2023-06-26T12:59:59;24.30;61.10
80577;DHT22;69937;52.420;10.538;2023-06-26T13:05:01;24.20;61.60
80577;DHT22;69937;52.420;10.538;2023-06-26T13:10:01;23.90;60.00
80577;DHT22;69937;52.420;10.538;2023-06-26T13:15:03;23.60;60.50
80577;DHT22;69937;52.420;10.538;2023-06-26T13:20:06;23.50;60.00
80577;DHT22;69937;52.420;10.538;2023-06-26T13:25:08;23.60;59.50
80577;DHT22;69937;52.420;10.538;2023-06-26T13:30:09;24.30;58.20
80577;DHT22;69937;52.420;10.538;2023-06-26T13:35:10;24.70;56.60
80577;DHT22;69937;52.420;10.538;2023-06-26T13:40:11;25.20;56.40
80577;DHT22;69937;52.420;10.538;2023-06-26T13:45:12;26.00;54.70
80577;DHT22;69937;52.420;10.538;2023-06-26T13:50:13;26.70;52.00
80577;DHT22;69937;52.420;10.538;2023-06-26T13:55:17;27.10;51.30
80577;DHT22;69937;52.420;10.538;2023-06-26T14:00:18;27.30;50.20
80577;DHT22;69937;52.420;10.538;2023-06-26T14:05:21;27.30;50.00
80577;DHT22;69937;52.420;10.538;2023-06-26T14:10:22;26.90;50.40
80577;DHT22;69937;52.420;10.538;2023-06-26T14:15:23;26.50;51.90
80577;DHT22;69937;52.420;10.538;2023-06-26T14:20:24;26.60;52.30
80577;DHT22;69937;52.420;10.538;2023-06-26T14:25:25;26.20;52.70
80577;DHT22;69937;52.420;10.538;2023-06-26T14:30:28;26.20;52.20
80577;DHT22;69937;52.420;10.538;2023-06-26T14:35:29;26.00;52.40
80577;DHT22;69937;52.420;10.538;2023-06-26T14:40:29;25.70;52.80
80577;DHT22;69937;52.420;10.538;2023-06-26T14:45:30;25.60;51.50
80577;DHT22;69937;52.420;10.538;2023-06-26T14:50:30;26.00;51.70
80577;DHT22;69937;52.420;10.538;2023-06-26T14:55:31;26.80;50.80
80577;DHT22;69937;52.420;10.538;2023-06-26T15:00:32;26.80;50.70
80577;DHT22;69937;52.420;10.538;2023-06-26T15:05:32;26.80;49.70
80577;DHT22;69937;52.420;10.538;2023-06-26T15:10:33;26.80;49.00
80577;DHT22;69937;52.420;10.538;2023-06-26T15:15:34;26.50;49.60
80577;DHT22;69937;52.420;10.538;2023-06-26T15:20:34;26.80;48.30
80577;DHT22;69937;52.420;10.538;2023-06-26T15:25:35;26.70;48.70
80577;DHT22;69937;52.420;10.538;2023-06-26T15:30:37;26.30;48.90
80577;DHT22;69937;52.420;10.538;2023-06-26T15:35:37;26.00;49.40
80577;DHT22;69937;52.420;10.538;2023-06-26T15:40:38;25.70;50.30
80577;DHT22;69937;52.420;10.538;2023-06-26T15:45:38;25.40;50.00
80577;DHT22;69937;52.420;10.538;2023-06-26T15:50:39;25.00;49.80
80577;DHT22;69937;52.420;10.538;2023-06-26T15:55:40;25.00;49.70
80577;DHT22;69937;52.420;10.538;2023-06-26T16:00:40;24.80;49.90
80577;DHT22;69937;52.420;10.538;2023-06-26T16:05:42;25.10;49.60
80577;DHT22;69937;52.420;10.538;2023-06-26T16:10:42;25.10;50.20
80577;DHT22;69937;52.420;10.538;2023-06-26T16:15:43;25.00;49.50
80577;DHT22;69937;52.420;10.538;2023-06-26T16:20:44;24.60;49.70
80577;DHT22;69937;52.420;10.538;2023-06-26T16:25:45;24.60;48.90
80577;DHT22;69937;52.420;10.538;2023-06-26T16:30:47;24.50;49.90
80577;DHT22;69937;52.420;10.538;2023-06-26T16:35:48;24.40;49.80
80577;DHT22;69937;52.420;10.538;2023-06-26T16:40:49;24.20;49.80
80577;DHT22;69937;52.420;10.538;2023-06-26T16:45:50;24.20;50.00
80577;DHT22;69937;52.420;10.538;2023-06-26T16:50:50;24.20;50.20
80577;DHT22;69937;52.420;10.538;2023-06-26T16:55:51;24.10;50.40
80577;DHT22;69937;52.420;10.538;2023-06-26T17:00:52;24.00;50.80
80577;DHT22;69937;52.420;10.538;2023-06-26T17:05:52;23.90;51.40
80577;DHT22;69937;52.420;10.538;2023-06-26T17:10:53;23.80;51.50
80577;DHT22;69937;52.420;10.538;2023-06-26T17:15:54;23.40;51.60
80577;DHT22;69937;52.420;10.538;2023-06-26T17:20:55;23.20;52.10
80577;DHT22;69937;52.420;10.538;2023-06-26T17:25:55;23.30;52.50
80577;DHT22;69937;52.420;10.538;2023-06-26T17:30:58;23.40;53.30
80577;DHT22;69937;52.420;10.538;2023-06-26T17:35:59;22.90;53.60
80577;DHT22;69937;52.420;10.538;2023-06-26T17:40:59;22.70;52.90
80577;DHT22;69937;52.420;10.538;2023-06-26T17:46:00;22.60;53.30
80577;DHT22;69937;52.420;10.538;2023-06-26T17:51:01;22.50;53.70
80577;DHT22;69937;52.420;10.538;2023-06-26T17:56:02;22.50;53.90
80577;DHT22;69937;52.420;10.538;2023-06-26T18:01:03;22.40;53.80
80577;DHT22;69937;52.420;10.538;2023-06-26T18:06:04;22.30;53.40
80577;DHT22;69937;52.420;10.538;2023-06-26T18:11:04;22.20;53.40
80577;DHT22;69937;52.420;10.538;2023-06-26T18:16:05;22.20;53.60
80577;DHT22;69937;52.420;10.538;2023-06-26T18:21:07;22.10;53.90
80577;DHT22;69937;52.420;10.538;2023-06-26T18:26:08;22.10;53.70
80577;DHT22;69937;52.420;10.538;2023-06-26T18:31:08;22.00;53.50
80577;DHT22;69937;52.420;10.538;2023-06-26T18:36:09;22.10;53.80
80577;DHT22;69937;52.420;10.538;2023-06-26T18:41:10;22.00;53.80
80577;DHT22;69937;52.420;10.538;2023-06-26T18:46:11;21.90;53.40
80577;DHT22;69937;52.420;10.538;2023-06-26T18:51:11;21.70;53.60
80577;DHT22;69937;52.420;10.538;2023-06-26T18:56:12;21.70;54.00
80577;DHT22;69937;52.420;10.538;2023-06-26T19:01:12;21.70;54.00
80577;DHT22;69937;52.420;10.538;2023-06-26T19:06:14;21.60;54.40
80577;DHT22;69937;52.420;10.538;2023-06-26T19:11:15;21.50;54.80
80577;DHT22;69937;52.420;10.538;2023-06-26T19:16:17;21.40;55.00
80577;DHT22;69937;52.420;10.538;2023-06-26T19:21:18;21.40;54.60
80577;DHT22;69937;52.420;10.538;2023-06-26T19:26:20;21.30;55.10
80577;DHT22;69937;52.420;10.538;2023-06-26T19:31:20;21.00;55.50
80577;DHT22;69937;52.420;10.538;2023-06-26T19:36:21;20.90;55.50
80577;DHT22;69937;52.420;10.538;2023-06-26T19:41:22;20.80;55.20
80577;DHT22;69937;52.420;10.538;2023-06-26T19:46:22;20.70;55.00
80577;DHT22;69937;52.420;10.538;2023-06-26T19:51:23;20.60;55.30
80577;DHT22;69937;52.420;10.538;2023-06-26T19:56:24;20.50;55.20
80577;DHT22;69937;52.420;10.538;2023-06-26T20:01:25;20.30;55.20
80577;DHT22;69937;52.420;10.538;2023-06-26T20:06:26;20.10;55.70
80577;DHT22;69937;52.420;10.538;2023-06-26T20:11:26;20.00;55.50
80577;DHT22;69937;52.420;10.538;2023-06-26T20:16:27;20.00;55.60
80577;DHT22;69937;52.420;10.538;2023-06-26T20:21:28;19.90;55.80
80577;DHT22;69937;52.420;10.538;2023-06-26T20:26:29;19.70;56.50
80577;DHT22;69937;52.420;10.538;2023-06-26T20:31:30;19.50;57.30
80577;DHT22;69937;52.420;10.538;2023-06-26T20:36:32;19.50;58.60
80577;DHT22;69937;52.420;10.538;2023-06-26T20:41:32;19.40;59.10
80577;DHT22;69937;52.420;10.538;2023-06-26T20:46:33;19.10;60.50
80577;DHT22;69937;52.420;10.538;2023-06-26T20:51:37;18.80;62.20
80577;DHT22;69937;52.420;10.538;2023-06-26T20:56:38;18.50;63.40
80577;DHT22;69937;52.420;10.538;2023-06-26T21:01:39;18.30;63.90
80577;DHT22;69937;52.420;10.538;2023-06-26T21:06:40;18.10;64.10
80577;DHT22;69937;52.420;10.538;2023-06-26T21:11:40;18.00;64.10
80577;DHT22;69937;52.420;10.538;2023-06-26T21:16:41;18.00;64.30
80577;DHT22;69937;52.420;10.538;2023-06-26T21:21:42;18.00;64.00
80577;DHT22;69937;52.420;10.538;2023-06-26T21:26:42;17.80;64.50
80577;DHT22;69937;52.420;10.538;2023-06-26T21:31:43;17.80;64.80
80577;DHT22;69937;52.420;10.538;2023-06-26T21:36:44;17.50;65.40
80577;DHT22;69937;52.420;10.538;2023-06-26T21:41:44;17.30;65.80
80577;DHT22;69937;52.420;10.538;2023-06-26T21:46:45;17.20;65.70
80577;DHT22;69937;52.420;10.538;2023-06-26T21:51:46;17.30;65.80
80577;DHT22;69937;52.420;10.538;2023-06-26T21:56:46;17.30;65.90
80577;DHT22;69937;52.420;10.538;2023-06-26T22:01:47;17.30;65.90
80577;DHT22;69937;52.420;10.538;2023-06-26T22:06:48;17.20;65.90
80577;DHT22;69937;52.420;10.538;2023-06-26T22:11:49;17.20;66.60
80577;DHT22;69937;52.420;10.538;2023-06-26T22:16:49;17.20;66.70
80577;DHT22;69937;52.420;10.538;2023-06-26T22:21:50;17.00;67.20
80577;DHT22;69937;52.420;10.538;2023-06-26T22:26:50;17.00;66.90
80577;DHT22;69937;52.420;10.538;2023-06-26T22:31:51;17.00;66.60
80577;DHT22;69937;52.420;10.538;2023-06-26T22:36:52;17.00;66.60
80577;DHT22;69937;52.420;10.538;2023-06-26T22:41:52;17.00;65.70
80577;DHT22;69937;52.420;10.538;2023-06-26T22:46:53;16.90;65.40
80577;DHT22;69937;52.420;10.538;2023-06-26T22:51:53;16.90;65.00
80577;DHT22;69937;52.420;10.538;2023-06-26T22:56:54;16.90;64.90
80577;DHT22;69937;52.420;10.538;2023-06-26T23:01:55;16.80;64.90
80577;DHT22;69937;52.420;10.538;2023-06-26T23:06:56;16.70;65.20
80577;DHT22;69937;52.420;10.538;2023-06-26T23:11:57;16.60;65.00
80577;DHT22;69937;52.420;10.538;2023-06-26T23:16:57;16.60;64.80
80577;DHT22;69937;52.420;10.538;2023-06-26T23:22:04;16.40;64.90
80577;DHT22;69937;52.420;10.538;2023-06-26T23:27:09;16.40;64.90
80577;DHT22;69937;52.420;10.538;2023-06-26T23:32:10;16.30;64.90
80577;DHT22;69937;52.420;10.538;2023-06-26T23:37:11;16.20;64.70
80577;DHT22;69937;52.420;10.538;2023-06-26T23:42:13;16.10;64.40
80577;DHT22;69937;52.420;10.538;2023-06-26T23:47:16;16.00;64.60
80577;DHT22;69937;52.420;10.538;2023-06-26T23:52:21;16.00;64.50
80577;DHT22;69937;52.420;10.538;2023-06-26T23:57:22;15.80;64.70
